GABS/BKO METAR and TAF weather

Enter ICAO airport designator
Station Type Date Time Source
GABS METAR 2018/06/25 02:00 UTC NOAA

GABS 250200Z 20005KT 9999 -RA SCT020 23/22 Q1013 NOSIG


Station Type Date Time Source
GABS Decoded METAR 2018/06/25 02:00 UTC NOAA

Bamako / Senou, Mali (GABS) 12-32N 007-57W 381M
Jun 24, 2018 - 10:00 PM EDT / 2018.06.25 0200 UTC
Wind: from the SSW (200 degrees) at 6 MPH (5 KT):0
Visibility: greater than 7 mile(s):0
Sky conditions: partly cloudy
Weather: light rain
Temperature: 73 F (23 C)
Dew Point: 71 F (22 C)
Relative Humidity: 94%
Pressure (altimeter): 29.91 in. Hg (1013 hPa)
ob: GABS 250200Z 20005KT 9999 -RA SCT020 23/22 Q1013 NOSIG
cycle: 2

Station Type Date Time Source
GABS TAF 2018/06/24 18:52 UTC NOAA

TAF GABS 241700Z 2418/2524 24008KT 9999 SCT030 PROB40
TEMPO 2500/2509 08020G40KT 4000 TSRA BKN026 SCT030CB PROB40
TEMPO 2515/2520 08025G45KT 2000 TSRA BKN026 SCT030CB


Example: see airport list